createdAt,value
2019-05-25T00:01:24.104Z,79.11
2019-05-25T00:03:54.635Z,79.18
2019-05-25T00:06:25.136Z,78.77
2019-05-25T00:08:55.698Z,79.05
2019-05-25T00:11:26.227Z,79.48
2019-05-25T00:13:56.717Z,78.89
2019-05-25T00:16:27.236Z,79.12
2019-05-25T00:18:57.706Z,79.11
2019-05-25T00:21:28.242Z,78.80
2019-05-25T00:24:11.197Z,79.16
2019-05-25T00:26:31.022Z,78.65
2019-05-25T00:29:01.430Z,78.74
2019-05-25T00:31:31.997Z,78.59
2019-05-25T00:34:02.472Z,78.67
2019-05-25T00:36:33.036Z,78.80
2019-05-25T00:39:03.619Z,78.72
2019-05-25T00:41:34.147Z,78.62
2019-05-25T00:44:04.747Z,79.16
2019-05-25T00:46:35.315Z,79.50
2019-05-25T00:49:05.785Z,79.39
2019-05-25T00:51:36.365Z,78.98
2019-05-25T00:54:07.658Z,79.16
2019-05-25T00:56:38.195Z,79.52
2019-05-25T00:59:08.696Z,79.30
2019-05-25T01:01:39.222Z,78.97
2019-05-25T01:04:09.722Z,78.84
2019-05-25T01:06:40.213Z,78.37
2019-05-25T01:09:10.884Z,78.05
2019-05-25T01:11:41.416Z,78.31
2019-05-25T01:14:11.907Z,78.55
2019-05-25T01:16:42.444Z,78.82
2019-05-25T01:19:12.966Z,77.70
2019-05-25T01:21:43.470Z,77.16
2019-05-25T01:24:14.311Z,77.06
2019-05-25T01:26:44.944Z,77.20
2019-05-25T01:29:15.523Z,77.33
2019-05-25T01:31:46.598Z,77.03
2019-05-25T01:34:17.118Z,76.97
2019-05-25T01:36:47.599Z,77.49
2019-05-25T01:39:18.171Z,76.43
2019-05-25T01:41:48.631Z,76.81
2019-05-25T01:44:19.212Z,76.62
2019-05-25T01:46:49.719Z,76.99
2019-05-25T01:49:20.229Z,77.40
2019-05-25T01:51:50.733Z,77.73
2019-05-25T01:54:21.295Z,77.50
2019-05-25T01:56:51.761Z,77.25
2019-05-25T01:59:22.362Z,77.65
2019-05-25T02:01:52.830Z,78.31
2019-05-25T02:04:23.165Z,78.31
2019-05-25T02:06:53.671Z,78.40
2019-05-25T02:09:24.206Z,79.16
2019-05-25T02:11:54.723Z,79.06
2019-05-25T02:14:25.279Z,79.13
2019-05-25T02:16:55.773Z,80.12
2019-05-25T02:19:26.243Z,79.96
2019-05-25T02:21:56.763Z,80.29
2019-05-25T02:24:27.205Z,80.44
2019-05-25T02:26:57.688Z,80.69
2019-05-25T02:29:28.258Z,81.27
2019-05-25T02:31:58.773Z,81.42
2019-05-25T02:34:29.282Z,81.67
2019-05-25T02:36:59.814Z,81.42
2019-05-25T02:39:30.292Z,81.66
2019-05-25T02:42:00.850Z,81.90
2019-05-25T02:44:31.334Z,82.33
2019-05-25T02:47:01.876Z,81.81
2019-05-25T02:49:32.409Z,81.68
2019-05-25T02:52:02.933Z,81.83
2019-05-25T02:54:33.432Z,81.82
2019-05-25T02:57:04.039Z,81.28
2019-05-25T02:59:34.556Z,81.21
2019-05-25T03:02:05.095Z,81.41
2019-05-25T03:04:35.567Z,81.27
2019-05-25T03:07:06.655Z,81.36
2019-05-25T03:09:39.095Z,81.21
2019-05-25T03:12:10.156Z,81.30
2019-05-25T03:14:41.327Z,81.42
2019-05-25T03:17:12.348Z,81.82
2019-05-25T03:19:43.041Z,81.64
2019-05-25T03:22:13.569Z,81.88
2019-05-25T03:24:44.134Z,81.86
2019-05-25T03:27:14.626Z,81.79
2019-05-25T03:29:45.144Z,82.07
2019-05-25T03:32:15.693Z,82.08
2019-05-25T03:34:46.260Z,82.11
2019-05-25T03:37:16.793Z,82.45
2019-05-25T03:39:47.329Z,82.55
2019-05-25T03:42:17.822Z,82.21
2019-05-25T03:44:48.412Z,82.46
2019-05-25T03:47:18.888Z,82.49
2019-05-25T03:49:49.436Z,82.92
2019-05-25T03:52:19.929Z,82.91
2019-05-25T03:54:50.460Z,82.65
2019-05-25T03:57:20.941Z,83.10
2019-05-25T03:59:51.458Z,83.17
2019-05-25T04:02:21.926Z,83.38
2019-05-25T04:04:52.454Z,83.00
2019-05-25T04:07:22.940Z,83.24
2019-05-25T04:09:53.436Z,82.95
2019-05-25T04:12:23.963Z,82.72
2019-05-25T04:14:54.405Z,82.16
2019-05-25T04:17:24.918Z,82.50
2019-05-25T04:19:55.431Z,82.59
2019-05-25T04:22:25.941Z,81.88
2019-05-25T04:24:56.411Z,81.67
2019-05-25T04:27:26.929Z,82.14
2019-05-25T04:29:57.449Z,82.02
2019-05-25T04:32:27.975Z,81.79
2019-05-25T04:34:58.442Z,81.91
2019-05-25T04:37:28.926Z,81.28
2019-05-25T04:39:59.419Z,80.50
2019-05-25T04:42:29.885Z,80.54
2019-05-25T04:45:00.407Z,81.41
2019-05-25T04:47:30.896Z,81.05
2019-05-25T04:50:01.366Z,81.08
2019-05-25T04:52:31.909Z,81.07
2019-05-25T04:55:02.402Z,80.52
2019-05-25T04:57:32.873Z,80.54
2019-05-25T05:00:03.402Z,80.76
2019-05-25T05:02:33.940Z,80.44
2019-05-25T05:05:05.533Z,80.61
2019-05-25T05:07:36.082Z,79.65
2019-05-25T05:10:07.488Z,78.71
2019-05-25T05:12:37.971Z,78.55
2019-05-25T05:15:09.335Z,77.44
2019-05-25T05:17:39.834Z,76.29
2019-05-25T05:20:11.031Z,75.52
2019-05-25T05:22:41.569Z,75.28
2019-05-25T05:25:12.573Z,75.06
2019-05-25T05:27:43.093Z,74.78
2019-05-25T05:30:13.703Z,73.42
2019-05-25T05:32:44.170Z,73.71
2019-05-25T05:35:14.652Z,73.49
2019-05-25T05:37:46.369Z,73.24
2019-05-25T05:40:16.896Z,73.57
2019-05-25T05:42:49.892Z,73.54
2019-05-25T05:45:20.398Z,71.65
2019-05-25T05:47:52.558Z,71.45
2019-05-25T05:50:23.443Z,71.61
2019-05-25T05:52:56.150Z,71.41
2019-05-25T05:55:33.080Z,70.77
2019-05-25T05:58:03.988Z,71.44
2019-05-25T06:00:34.510Z,70.96
2019-05-25T06:03:05.071Z,71.30
2019-05-25T06:05:35.570Z,69.47
2019-05-25T06:08:36.969Z,69.89
2019-05-25T06:11:07.484Z,69.95
2019-05-25T06:13:37.956Z,70.45
2019-05-25T06:16:08.457Z,69.40
2019-05-25T06:18:39.024Z,69.55
2019-05-25T06:21:09.515Z,69.50
2019-05-25T06:23:39.970Z,69.92
2019-05-25T06:26:10.495Z,69.91
2019-05-25T06:28:40.974Z,69.82
2019-05-25T06:31:11.429Z,70.54
2019-05-25T06:33:41.850Z,69.98
2019-05-25T06:36:12.365Z,69.79
2019-05-25T06:38:42.825Z,70.46
2019-05-25T06:41:13.355Z,69.42
2019-05-25T06:43:43.862Z,69.51
2019-05-25T06:46:14.364Z,69.80
2019-05-25T06:48:44.882Z,70.03
2019-05-25T06:51:15.373Z,70.61
2019-05-25T06:53:47.606Z,70.06
2019-05-25T06:56:18.162Z,70.15
2019-05-25T06:58:48.676Z,70.45
2019-05-25T07:01:19.201Z,70.34
2019-05-25T07:03:49.695Z,70.54
2019-05-25T07:06:20.248Z,71.25
2019-05-25T07:08:50.727Z,70.37
2019-05-25T07:11:21.232Z,70.03
2019-05-25T07:13:51.796Z,70.19
2019-05-25T07:16:22.324Z,69.73
2019-05-25T07:18:52.926Z,70.59
2019-05-25T07:21:23.546Z,70.91
2019-05-25T07:23:54.175Z,70.56
2019-05-25T07:26:24.801Z,69.39
2019-05-25T07:28:55.254Z,68.84
2019-05-25T07:31:25.792Z,67.63
2019-05-25T07:33:56.289Z,68.05
2019-05-25T07:36:26.751Z,67.47
2019-05-25T07:38:57.246Z,66.80
2019-05-25T07:41:27.803Z,65.56
2019-05-25T07:43:58.314Z,65.76
2019-05-25T07:46:28.861Z,65.53
2019-05-25T07:48:59.372Z,65.23
2019-05-25T07:51:30.013Z,65.18
2019-05-25T07:54:00.555Z,65.64
2019-05-25T07:56:31.076Z,66.34
2019-05-25T07:59:01.642Z,66.23
2019-05-25T08:01:32.114Z,66.69
2019-05-25T08:04:02.620Z,67.57
2019-05-25T08:06:33.095Z,67.50
2019-05-25T08:09:04.083Z,66.78
2019-05-25T08:11:34.572Z,65.99
2019-05-25T08:14:05.017Z,66.22
2019-05-25T08:16:35.481Z,66.08
2019-05-25T08:19:05.971Z,65.96
2019-05-25T08:21:36.514Z,66.13
2019-05-25T08:24:07.001Z,66.20
2019-05-25T08:26:37.490Z,66.34
2019-05-25T08:29:07.969Z,66.49
2019-05-25T08:31:38.472Z,65.24
2019-05-25T08:34:08.950Z,65.08
2019-05-25T08:36:39.439Z,65.55
2019-05-25T08:39:09.908Z,64.95
2019-05-25T08:41:40.508Z,65.20
2019-05-25T08:44:10.989Z,64.27
2019-05-25T08:46:41.451Z,64.36
2019-05-25T08:49:11.955Z,62.11
2019-05-25T08:51:42.428Z,62.19
2019-05-25T08:54:12.911Z,61.44
2019-05-25T08:56:43.443Z,61.26
2019-05-25T08:59:13.951Z,61.33
2019-05-25T09:02:03.646Z,60.75
2019-05-25T09:04:34.096Z,61.15
2019-05-25T09:07:04.614Z,60.83
2019-05-25T09:09:35.240Z,61.10
2019-05-25T09:12:05.697Z,60.25
2019-05-25T09:14:37.308Z,60.25
2019-05-25T09:17:07.860Z,61.25
2019-05-25T09:19:38.384Z,61.50
2019-05-25T09:22:08.855Z,62.25
2019-05-25T09:24:39.392Z,62.71
2019-05-25T09:27:09.821Z,63.37
2019-05-25T09:29:40.411Z,63.91
2019-05-25T09:32:10.947Z,64.68
2019-05-25T09:34:41.531Z,65.56
2019-05-25T09:37:12.062Z,66.28
2019-05-25T09:39:42.691Z,67.06
2019-05-25T09:42:13.187Z,67.43
2019-05-25T09:44:43.691Z,66.71
2019-05-25T09:47:14.195Z,66.49
2019-05-25T09:49:44.714Z,66.23
2019-05-25T09:52:15.216Z,65.23
2019-05-25T09:54:45.718Z,64.47
2019-05-25T09:57:17.287Z,64.59
2019-05-25T09:59:47.786Z,64.60
2019-05-25T10:02:18.322Z,64.04
2019-05-25T10:04:48.857Z,64.52
2019-05-25T10:07:19.339Z,64.83
2019-05-25T10:09:49.867Z,63.29
2019-05-25T10:12:21.288Z,64.13
2019-05-25T10:14:51.752Z,62.86
2019-05-25T10:17:22.306Z,62.15
2019-05-25T10:19:52.837Z,61.59
2019-05-25T10:22:23.294Z,61.67
2019-05-25T10:24:54.166Z,61.58
2019-05-25T10:27:24.988Z,60.80
2019-05-25T10:29:55.429Z,60.24
2019-05-25T10:32:26.062Z,60.82
2019-05-25T10:34:57.008Z,61.69
2019-05-25T10:37:27.503Z,61.94
2019-05-25T10:39:58.034Z,61.95
2019-05-25T10:42:28.822Z,61.27
2019-05-25T10:44:59.408Z,61.81
2019-05-25T10:47:29.912Z,63.22
2019-05-25T10:50:00.446Z,63.34
2019-05-25T10:52:30.960Z,62.07
2019-05-25T10:55:01.583Z,61.65
2019-05-25T10:57:32.147Z,61.42
2019-05-25T11:00:02.644Z,60.93
2019-05-25T11:02:33.205Z,61.24
2019-05-25T11:05:03.870Z,60.81
2019-05-25T11:07:35.224Z,61.09
2019-05-25T11:10:06.279Z,61.47
2019-05-25T11:12:36.869Z,61.73
2019-05-25T11:15:08.299Z,63.00
2019-05-25T11:17:38.885Z,63.86
2019-05-25T11:20:10.589Z,63.34
2019-05-25T11:22:41.065Z,63.05
2019-05-25T11:25:12.341Z,62.16
2019-05-25T11:27:42.939Z,62.26
2019-05-25T11:30:14.318Z,60.92
2019-05-25T11:32:44.909Z,60.28
2019-05-25T11:35:17.471Z,60.05
2019-05-25T11:37:48.634Z,59.40
2019-05-25T11:40:19.923Z,59.27
2019-05-25T11:42:50.475Z,59.88
2019-05-25T11:45:21.484Z,61.39
2019-05-25T11:47:52.104Z,60.78
2019-05-25T11:50:23.005Z,62.69
2019-05-25T11:52:53.578Z,63.80
2019-05-25T11:55:24.107Z,64.26
2019-05-25T11:57:54.655Z,64.75
2019-05-25T12:00:27.245Z,63.97
2019-05-25T12:02:57.855Z,64.44
2019-05-25T12:05:28.532Z,62.76
2019-05-25T12:07:59.067Z,61.79
2019-05-25T12:10:29.582Z,61.79
2019-05-25T12:13:00.086Z,60.54
2019-05-25T12:15:30.688Z,58.68
2019-05-25T12:18:01.208Z,58.85
2019-05-25T12:20:31.736Z,58.49
2019-05-25T12:23:01.371Z,58.40
2019-05-25T12:25:30.841Z,56.91
2019-05-25T12:28:00.436Z,56.85
2019-05-25T12:30:40.293Z,59.11
2019-05-25T12:33:01.108Z,61.64
2019-05-25T12:35:30.631Z,62.16
2019-05-25T12:38:00.152Z,62.35
2019-05-25T12:40:29.648Z,61.92
2019-05-25T12:42:59.160Z,62.90
2019-05-25T12:45:28.696Z,63.56
2019-05-25T12:47:58.189Z,64.17
2019-05-25T12:50:27.641Z,62.49
2019-05-25T12:52:57.116Z,61.03
2019-05-25T12:55:26.587Z,61.52
2019-05-25T12:57:56.124Z,61.65
2019-05-25T13:00:25.800Z,61.78
2019-05-25T13:02:55.684Z,61.90
2019-05-25T13:05:34.064Z,61.79
2019-05-25T13:07:56.458Z,59.56
2019-05-25T13:10:25.943Z,59.00
2019-05-25T13:12:57.696Z,59.37
2019-05-25T13:15:26.693Z,59.73
2019-05-25T13:17:56.136Z,59.72
2019-05-25T13:20:25.614Z,58.31
2019-05-25T13:22:55.186Z,60.39
2019-05-25T13:25:24.680Z,61.29
2019-05-25T13:27:54.149Z,63.14
2019-05-25T13:30:23.648Z,63.04
2019-05-25T13:32:53.121Z,63.27
2019-05-25T13:35:22.643Z,64.49
2019-05-25T13:37:52.109Z,63.66
2019-05-25T13:40:21.590Z,63.89
2019-05-25T13:42:51.065Z,64.32
2019-05-25T13:45:20.655Z,64.23
2019-05-25T13:47:50.145Z,63.53
2019-05-25T13:50:19.713Z,63.41
2019-05-25T13:52:49.261Z,63.14
2019-05-25T13:55:18.756Z,62.58
2019-05-25T13:57:48.466Z,61.36
2019-05-25T14:00:18.396Z,58.90
2019-05-25T14:02:48.561Z,60.25
2019-05-25T14:05:18.287Z,60.67
2019-05-25T14:07:48.038Z,59.83
2019-05-25T14:10:17.548Z,60.38
2019-05-25T14:12:47.043Z,60.49
2019-05-25T14:15:16.959Z,58.03
2019-05-25T14:17:46.412Z,56.44
2019-05-25T14:20:17.634Z,57.47
2019-05-25T14:22:47.301Z,57.13
2019-05-25T14:25:17.026Z,58.11
2019-05-25T14:27:46.582Z,60.15
2019-05-25T14:30:16.454Z,60.83
2019-05-25T14:32:46.872Z,62.12
2019-05-25T14:35:16.855Z,62.57
2019-05-25T14:37:46.458Z,62.69
2019-05-25T14:40:16.436Z,62.75
2019-05-25T14:42:45.981Z,63.47
2019-05-25T14:45:16.284Z,62.68
2019-05-25T14:47:45.902Z,63.22
2019-05-25T14:50:15.629Z,63.44
2019-05-25T14:52:45.114Z,62.89
2019-05-25T14:55:15.588Z,62.48
2019-05-25T14:57:45.086Z,62.11
2019-05-25T15:00:15.964Z,61.59
2019-05-25T15:02:46.306Z,61.40
2019-05-25T15:05:15.889Z,62.09
2019-05-25T15:07:45.404Z,62.00
2019-05-25T15:10:16.225Z,62.07
2019-05-25T15:12:45.706Z,62.55
2019-05-25T15:15:16.574Z,62.00
2019-05-25T15:17:46.304Z,61.71
2019-05-25T15:20:15.880Z,61.64
2019-05-25T15:22:46.990Z,61.52
2019-05-25T15:25:16.683Z,61.03
2019-05-25T15:27:46.182Z,60.18
2019-05-25T15:30:15.903Z,60.05
2019-05-25T15:32:45.379Z,60.12
2019-05-25T15:35:14.950Z,60.77
2019-05-25T15:40:33.036Z,60.20
2019-05-25T15:43:02.515Z,60.48
2019-05-25T15:45:31.983Z,60.59
2019-05-25T15:48:01.450Z,61.03
2019-05-25T15:50:30.958Z,61.57
2019-05-25T15:53:00.482Z,63.13
2019-05-25T15:55:30.119Z,62.68
2019-05-25T15:57:59.577Z,63.16
2019-05-25T16:00:49.527Z,63.44
2019-05-25T16:03:20.095Z,63.48
2019-05-25T16:05:50.019Z,64.06
2019-05-25T16:08:20.442Z,63.95
2019-05-25T16:10:51.252Z,63.91
2019-05-25T16:13:21.361Z,63.89
2019-05-25T16:15:50.948Z,63.04
2019-05-25T16:18:21.038Z,62.97
2019-05-25T16:20:50.547Z,62.70
2019-05-25T16:23:20.071Z,63.05
2019-05-25T16:25:49.633Z,63.07
2019-05-25T16:28:20.046Z,63.33
2019-05-25T16:30:49.514Z,62.81
2019-05-25T16:33:18.837Z,62.34
2019-05-25T16:35:48.333Z,62.66
2019-05-25T16:38:17.983Z,63.30
2019-05-25T16:40:47.700Z,64.12
2019-05-25T16:43:17.164Z,64.24
2019-05-25T16:45:46.704Z,64.34
2019-05-25T16:48:30.823Z,65.20
2019-05-25T16:51:00.384Z,65.90
2019-05-25T16:53:29.832Z,65.93
2019-05-25T16:55:59.421Z,65.85
2019-05-25T16:58:28.944Z,65.50
2019-05-25T17:00:58.434Z,64.59
2019-05-25T17:03:29.179Z,65.22
2019-05-25T17:05:58.875Z,64.88
2019-05-25T17:08:28.456Z,64.09
2019-05-25T17:10:58.055Z,64.14
2019-05-25T17:13:27.603Z,64.90
2019-05-25T17:15:57.179Z,65.07
2019-05-25T17:18:26.766Z,65.44
2019-05-25T17:20:56.238Z,64.98
2019-05-25T17:23:25.724Z,65.11
2019-05-25T17:25:55.414Z,65.63
2019-05-25T17:28:24.859Z,65.78
2019-05-25T17:30:54.320Z,65.97
2019-05-25T17:33:23.847Z,66.29
2019-05-25T17:35:53.375Z,66.84
2019-05-25T17:38:22.855Z,66.95
2019-05-25T17:40:52.337Z,67.05
2019-05-25T17:43:21.781Z,67.13
2019-05-25T17:45:51.255Z,67.05
2019-05-25T17:48:20.804Z,66.76
2019-05-25T17:50:50.359Z,66.96
2019-05-25T17:53:19.845Z,67.03
2019-05-25T17:55:49.442Z,66.49
2019-05-25T17:58:19.020Z,66.61
2019-05-25T18:00:50.479Z,67.20
2019-05-25T18:03:20.333Z,66.71
2019-05-25T18:05:49.898Z,66.36
2019-05-25T18:08:19.464Z,66.69
2019-05-25T18:10:53.230Z,66.87
2019-05-25T18:13:20.210Z,66.70
2019-05-25T18:15:49.765Z,66.85
2019-05-25T18:18:19.328Z,67.33
2019-05-25T18:20:48.995Z,67.43
2019-05-25T18:23:19.294Z,67.48
2019-05-25T18:25:49.034Z,67.79
2019-05-25T18:28:18.586Z,68.31
2019-05-25T18:30:48.090Z,68.68
2019-05-25T18:33:17.674Z,68.91
2019-05-25T18:35:47.271Z,69.45
2019-05-25T18:38:16.971Z,69.31
2019-05-25T18:40:46.473Z,69.06
2019-05-25T18:43:16.012Z,69.17
2019-05-25T18:45:45.579Z,69.45
2019-05-25T18:48:15.085Z,70.24
2019-05-25T18:50:44.986Z,70.45
2019-05-25T18:53:14.591Z,70.35
2019-05-25T18:55:44.604Z,70.86
2019-05-25T18:58:14.135Z,71.43
2019-05-25T19:00:43.635Z,71.40
2019-05-25T19:03:13.227Z,71.48
2019-05-25T19:05:42.746Z,71.74
2019-05-25T19:08:12.271Z,71.81
2019-05-25T19:10:41.875Z,71.71
2019-05-25T19:13:11.357Z,71.90
2019-05-25T19:15:40.853Z,72.07
2019-05-25T19:18:10.370Z,72.28
2019-05-25T19:20:39.877Z,72.34
2019-05-25T19:23:09.351Z,72.41
2019-05-25T19:25:38.861Z,72.48
2019-05-25T19:28:08.372Z,71.94
2019-05-25T19:30:37.887Z,71.33
2019-05-25T19:33:07.507Z,70.90
2019-05-25T19:35:36.992Z,70.84
2019-05-25T19:38:06.526Z,69.70
2019-05-25T19:40:36.050Z,69.52
2019-05-25T19:43:05.567Z,69.75
2019-05-25T19:45:35.039Z,69.64
2019-05-25T19:48:04.628Z,69.81
2019-05-25T19:50:34.057Z,69.55
2019-05-25T19:53:03.562Z,69.21
2019-05-25T19:55:33.116Z,69.58
2019-05-25T19:58:02.666Z,69.85
2019-05-25T20:00:32.996Z,69.51
2019-05-25T20:03:02.526Z,70.07
2019-05-25T20:05:32.056Z,69.81
2019-05-25T20:08:01.555Z,70.28
2019-05-25T20:10:31.097Z,70.35
2019-05-25T20:13:00.621Z,70.62
2019-05-25T20:15:30.103Z,70.54
2019-05-25T20:17:59.650Z,70.96
2019-05-25T20:20:29.882Z,70.75
2019-05-25T20:22:59.455Z,71.27
2019-05-25T20:25:29.035Z,71.19
2019-05-25T20:27:58.595Z,71.85
2019-05-25T20:30:28.216Z,71.96
2019-05-25T20:33:02.831Z,72.37
2019-05-25T20:35:33.760Z,72.66
2019-05-25T20:38:03.578Z,73.00
2019-05-25T20:40:33.124Z,73.41
2019-05-25T20:43:02.713Z,73.32
2019-05-25T20:45:32.341Z,73.75
2019-05-25T20:48:01.830Z,73.63
2019-05-25T20:50:31.728Z,73.70
2019-05-25T20:53:01.705Z,73.97
2019-05-25T20:55:31.226Z,73.75
2019-05-25T20:58:00.733Z,73.87
2019-05-25T21:00:30.208Z,74.04
2019-05-25T21:03:06.028Z,74.19
2019-05-25T21:05:30.988Z,74.46
2019-05-25T21:08:00.560Z,74.88
2019-05-25T21:10:30.093Z,74.73
2019-05-25T21:12:59.671Z,74.20
2019-05-25T21:15:29.209Z,74.71
2019-05-25T21:17:58.823Z,75.01
2019-05-25T21:20:28.624Z,75.27
2019-05-25T21:22:58.046Z,75.35
2019-05-25T21:25:27.555Z,75.40
2019-05-25T21:27:57.005Z,75.74
2019-05-25T21:30:26.509Z,75.37
2019-05-25T21:32:56.133Z,75.26
2019-05-25T21:35:26.060Z,75.36
2019-05-25T21:37:55.831Z,75.19
2019-05-25T21:40:25.285Z,75.16
2019-05-25T21:42:55.295Z,74.90
2019-05-25T21:45:24.954Z,75.16
2019-05-25T21:47:56.233Z,75.37
2019-05-25T21:50:25.839Z,75.31
2019-05-25T21:52:55.134Z,75.46
2019-05-25T21:55:24.671Z,75.57
2019-05-25T21:57:54.192Z,75.98
2019-05-25T22:00:26.380Z,75.76
2019-05-25T22:02:55.914Z,75.79
2019-05-25T22:05:25.572Z,76.27
2019-05-25T22:07:55.069Z,76.43
2019-05-25T22:10:24.639Z,76.57
2019-05-25T22:12:54.152Z,76.69
2019-05-25T22:15:23.621Z,76.35
2019-05-25T22:17:53.218Z,76.76
2019-05-25T22:20:22.681Z,76.75
2019-05-25T22:22:52.143Z,76.82
2019-05-25T22:25:21.620Z,77.37
2019-05-25T22:27:51.160Z,77.35
2019-05-25T22:30:21.306Z,77.13
2019-05-25T22:32:50.809Z,76.84
2019-05-25T22:35:20.289Z,77.03
2019-05-25T22:37:49.747Z,77.51
2019-05-25T22:40:19.294Z,77.35
2019-05-25T22:42:48.764Z,77.31
2019-05-25T22:45:19.058Z,77.50
2019-05-25T22:47:48.569Z,77.66
2019-05-25T22:50:18.037Z,77.42
2019-05-25T22:52:47.473Z,77.65
2019-05-25T22:55:17.057Z,78.04
2019-05-25T22:57:46.592Z,77.60
2019-05-25T23:00:16.486Z,77.70
2019-05-25T23:02:45.939Z,77.72
2019-05-25T23:05:15.431Z,77.83
2019-05-25T23:07:44.889Z,78.34
2019-05-25T23:10:14.728Z,78.33
2019-05-25T23:12:44.187Z,78.70
2019-05-25T23:15:13.757Z,78.68
2019-05-25T23:17:43.250Z,78.93
2019-05-25T23:20:13.856Z,79.35
2019-05-25T23:22:43.297Z,79.57
2019-05-25T23:25:12.770Z,79.15
2019-05-25T23:27:42.258Z,79.57
2019-05-25T23:30:12.002Z,79.58
2019-05-25T23:32:41.509Z,79.60
2019-05-25T23:35:11.062Z,79.80
2019-05-25T23:37:40.515Z,79.96
2019-05-25T23:40:10.109Z,80.38
2019-05-25T23:42:39.570Z,80.71
2019-05-25T23:45:09.345Z,80.88
2019-05-25T23:47:38.843Z,81.02
2019-05-25T23:50:08.788Z,80.91
2019-05-25T23:52:38.237Z,80.61
2019-05-25T23:55:08.091Z,80.83
2019-05-25T23:57:37.544Z,80.92
